• Join FlightAware (Why Join?)
  • Login
  • US Flag 
01:50AM EDT


 

Airport Tracker/Info


-or-


 

Live Flight TrackerFlight Track Log ✈ AWI3808 ✈ 10-Apr-2013 ✈ KPIT - KLGA

Flight Track Log - Related Links

Times and Time Zones

All times are in EDT time to prevent confusion due to time zone crossing. See the AWI3808 flight status page for this flight to view local times or setup timezone preferences in your user account.

Time Position Orientation Groundspeed Altitude Reporting Facility
EDT Latitude Longitude Course Direction KTS MPH feet Rate Location/Type
04:36PM 40.6119 -80.0114 75° East 337 388 9,600  Level Cleveland Center
04:37PM 40.6239 -79.8964 82° East 350 403 11,600 1,980 Climbing Cleveland Center
04:38PM 40.5523 -79.3484 80° East  Level Estimated
04:38PM 40.6333 -79.7569 85° East 350 403 13,600  Level Cleveland Center
04:39PM 40.5846 -79.2065 73° East  Level FlightAware Approximate
04:39PM 40.6447 -79.6225 84° East 350 403 15,300  Level Cleveland Center
04:40PM 40.6168 -79.0645 73° East  Level FlightAware Approximate
04:40PM 40.6561 -79.4856 84° East 361 415 16,900  Level Cleveland Center
04:41PM 40.6246 -78.9166 80° East  Level Estimated
04:41PM 40.6650 -79.3458 85° East 371 427 18,400  Level Cleveland Center
04:42PM 40.6530 -78.7731 75° East  Level FlightAware Approximate
04:42PM 40.6758 -79.2033 84° East 377 434 19,100  Level Cleveland Center
04:43PM 40.6867 -79.0608 84° East 387 445 20,000 780 Climbing Cleveland Center
04:44PM 40.6931 -78.9292 86° East 393 452 20,700 780 Climbing Cleveland Center
04:45PM 40.7117 -78.7861 80° East 393 452 21,600 720 Climbing Cleveland Center
04:46PM 40.7617 -78.6533 64° Northeast 388 447 22,200 660 Climbing Cleveland Center
04:47PM 40.8114 -78.5200 64° Northeast 394 453 23,000 720 Climbing Cleveland Center
04:48PM 40.8756 -78.3781 59° Northeast 405 466 23,700 600 Climbing Cleveland Center
04:49PM 40.9083 -78.2367 73° East 398 458 24,200 660 Climbing Cleveland Center
04:52PM 40.9275 -77.9094 85° East 408 470 26,000 780 Climbing New York Center
04:53PM 40.9403 -77.7653 83° East 402 463 26,800 480 Climbing New York Center
04:54PM 40.9506 -77.6233 84° East 397 457 27,000 60 Climbing New York Center
04:55PM 40.9636 -77.4681 84° East 405 466 27,000  Level New York Center
04:56PM 40.9742 -77.3150 85° East 410 472 27,000  Level New York Center
04:57PM 40.9847 -77.1622 85° East 416 479 27,000  Level New York Center
04:58PM 40.9533 -77.0108 105° East 421 484 27,000 -60 Level New York Center
04:59PM 40.9089 -76.8583 111° Southeast 426 490 26,900 -780 Descending New York Center
05:00PM 40.8756 -76.6961 105° East 437 503 25,500 -1,680 Descending New York Center
05:01PM 40.8894 -76.5408 83° East 429 494 23,600 -2,460 Descending New York Center
05:02PM 40.9031 -76.3883 83° East 424 488 20,600 -2,340 Descending New York Center
05:03PM 40.9161 -76.2439 83° East 405 466 19,000 -1,680 Descending New York Center
05:04PM 40.8833 -76.0931 106° East 379 436 17,300 -1,560 Descending New York Center
05:05PM 40.8497 -75.9614 109° East 403 464 16,000 -1,140 Descending New York Center
05:06PM 40.8022 -75.8042 112° Southeast 420 483 15,100 -900 Descending New York Center
05:07PM 40.7708 -75.6622 106° East 420 483 14,200 -1,140 Descending New York Center
05:08PM 40.7431 -75.5258 105° East 403 464 12,900 -660 Descending New York Center
05:09PM 40.7131 -75.3897 106° East 384 442 12,900 -600 Level New York Center
05:10PM 40.6850 -75.2508 105° East 390 449 11,800 -1,320 Descending New York Center
05:11PM 40.6419 -75.1169 113° Southeast 390 449 10,300 -960 Descending New York Center
05:12PM 40.5747 -75.0169 131° Southeast 376 433 9,900 -240 Descending New York Center
05:13PM 40.5411 -74.9111 113° Southeast 357 411 9,900 120 Level New York Center
05:13PM 40.5167 -74.8500 118° Southeast 318 366 10,100 120 Climbing New York TRACON
05:14PM 40.4833 -74.7333 111° Southeast 335 386 10,100  Level New York TRACON
05:15PM 40.4500 -74.6167 111° Southeast 335 386 10,100  Level New York TRACON
05:16PM 40.4333 -74.5167 102° East 328 377 10,100 -60 Level New York TRACON
05:17PM 40.4667 -74.4000 69° East 330 380 10,000 -1,020 Descending New York TRACON
05:18PM 40.5000 -74.2833 69° East 314 361 8,100 -1,140 Descending New York TRACON
05:19PM 40.5167 -74.1833 78° East 305 351 7,800 -1,020 Descending New York TRACON
05:20PM 40.5667 -74.1000 52° Northeast 307 353 6,100 -1,860 Descending New York TRACON
05:21PM 40.6333 -74.0500 30° Northeast 291 335 4,100 -1,020 Descending New York TRACON
05:22PM 40.7167 -74.0167 17° North 270 311 4,100  Level New York TRACON
05:24PM 40.8667 -73.9500 19° North 287 330 4,100  Level New York TRACON
05:25PM 40.9333 -73.9000 30° Northeast 289 333 4,100 -780 Level New York TRACON
05:26PM 40.9333 -73.8167 90° East 272 313 2,600 -600 Descending New York TRACON
05:27PM 40.9167 -73.7500 108° East 240 276 3,000 240 Climbing New York TRACON
05:28PM 40.9333 -73.6667 75° East 236 272 3,100  Climbing New York TRACON
05:29PM 40.9667 -73.6000 56° Northeast 235 270 3,100  Level New York TRACON
05:30PM 41.0000 -73.6500 311° West 223 257 3,100  Level New York TRACON
05:31PM 40.9667 -73.7167 237° Southwest 189 217 3,100  Level New York TRACON